createdAt,value
2023-01-05T00:00:39.864Z,12.50
2023-01-05T00:01:39.877Z,12.53
2023-01-05T00:02:39.866Z,12.54
2023-01-05T00:03:39.784Z,12.54
2023-01-05T00:04:39.829Z,12.54
2023-01-05T00:05:39.754Z,12.55
2023-01-05T00:06:39.805Z,12.55
2023-01-05T00:07:39.787Z,12.55
2023-01-05T00:08:39.766Z,12.55
2023-01-05T00:09:39.738Z,12.55
2023-01-05T00:10:39.706Z,12.54
2023-01-05T00:11:39.730Z,12.54
2023-01-05T00:12:39.682Z,12.54
2023-01-05T00:13:39.647Z,12.54
2023-01-05T00:14:39.670Z,12.53
2023-01-05T00:15:39.660Z,12.50
2023-01-05T00:16:39.725Z,12.50
2023-01-05T00:17:39.650Z,12.49
2023-01-05T00:18:39.608Z,12.50
2023-01-05T00:19:39.605Z,12.49
2023-01-05T00:20:39.600Z,12.49
2023-01-05T00:21:39.609Z,12.46
2023-01-05T00:22:39.596Z,12.46
2023-01-05T00:23:39.557Z,12.46
2023-01-05T00:24:39.556Z,12.46
2023-01-05T00:25:39.542Z,12.46
2023-01-05T00:26:39.584Z,12.45
2023-01-05T00:27:39.533Z,12.46
2023-01-05T00:28:39.554Z,12.46
2023-01-05T00:29:39.509Z,12.47
2023-01-05T00:30:39.479Z,12.47
2023-01-05T00:31:39.518Z,12.46
2023-01-05T00:32:39.484Z,12.45
2023-01-05T00:33:39.454Z,12.43
2023-01-05T00:34:39.455Z,12.45
2023-01-05T00:35:39.462Z,12.43
2023-01-05T00:36:39.403Z,12.43
2023-01-05T00:37:39.430Z,12.42
2023-01-05T00:38:39.391Z,12.42
2023-01-05T00:39:39.372Z,12.42
2023-01-05T00:40:39.440Z,12.40
2023-01-05T00:41:39.355Z,12.39
2023-01-05T00:42:39.335Z,12.37
2023-01-05T00:43:39.335Z,12.36
2023-01-05T00:44:39.376Z,12.35
2023-01-05T00:45:39.361Z,12.35
2023-01-05T00:46:40.275Z,12.35
2023-01-05T00:47:39.294Z,12.32
2023-01-05T00:48:39.267Z,12.31
2023-01-05T00:49:39.287Z,12.31
2023-01-05T00:50:39.259Z,12.31
2023-01-05T00:51:39.254Z,12.29
2023-01-05T00:52:39.238Z,12.31
2023-01-05T00:53:39.227Z,12.29
2023-01-05T00:54:39.220Z,12.29
2023-01-05T00:55:39.221Z,12.29
2023-01-05T00:56:39.209Z,12.29
2023-01-05T00:57:39.225Z,12.31
2023-01-05T00:58:39.160Z,12.31
2023-01-05T00:59:39.160Z,12.29
2023-01-05T01:00:43.990Z,12.28
2023-01-05T01:01:40.208Z,12.28
2023-01-05T01:02:39.206Z,12.27
2023-01-05T01:03:39.160Z,12.25
2023-01-05T01:04:39.143Z,12.25
2023-01-05T01:05:39.098Z,12.24
2023-01-05T01:06:39.079Z,12.22
2023-01-05T01:07:39.106Z,12.21
2023-01-05T01:08:39.043Z,12.22
2023-01-05T01:09:39.060Z,12.21
2023-01-05T01:10:39.126Z,12.20
2023-01-05T01:11:39.039Z,12.20
2023-01-05T01:12:38.997Z,12.18
2023-01-05T01:13:39.043Z,12.18
2023-01-05T01:14:38.990Z,12.15
2023-01-05T01:15:38.973Z,12.15
2023-01-05T01:16:38.997Z,12.15
2023-01-05T01:17:38.957Z,12.15
2023-01-05T01:18:38.937Z,12.15
2023-01-05T01:19:38.966Z,12.17
2023-01-05T01:20:38.916Z,12.17
2023-01-05T01:21:38.897Z,12.17
2023-01-05T01:22:38.912Z,12.15
2023-01-05T01:23:38.907Z,12.13
2023-01-05T01:24:38.907Z,12.12
2023-01-05T01:25:38.858Z,12.12
2023-01-05T01:26:38.847Z,12.12
2023-01-05T01:27:38.856Z,12.13
2023-01-05T01:28:38.984Z,12.12
2023-01-05T01:29:38.813Z,12.12
2023-01-05T01:30:39.788Z,12.12
2023-01-05T01:31:38.795Z,12.10
2023-01-05T01:32:38.781Z,12.10
2023-01-05T01:33:38.778Z,12.10
2023-01-05T01:34:38.811Z,12.07
2023-01-05T01:35:38.756Z,12.09
2023-01-05T01:36:38.729Z,12.06
2023-01-05T01:37:38.761Z,12.06
2023-01-05T01:38:38.732Z,12.04
2023-01-05T01:39:38.711Z,12.06
2023-01-05T01:40:38.690Z,12.06
2023-01-05T01:41:38.697Z,12.07
2023-01-05T01:42:38.668Z,12.06
2023-01-05T01:43:38.693Z,12.06
2023-01-05T01:44:38.661Z,12.07
2023-01-05T01:45:38.701Z,12.07
2023-01-05T01:46:38.630Z,12.07
2023-01-05T01:47:38.620Z,12.06
2023-01-05T01:48:38.626Z,12.07
2023-01-05T01:49:38.587Z,12.06
2023-01-05T01:50:38.584Z,12.06
2023-01-05T01:51:38.628Z,12.04
2023-01-05T01:52:38.556Z,12.03
2023-01-05T01:53:38.563Z,12.00
2023-01-05T01:54:38.538Z,12.00
2023-01-05T01:55:38.536Z,11.97
2023-01-05T01:56:38.527Z,11.97
2023-01-05T01:57:38.518Z,11.97
2023-01-05T01:58:38.539Z,11.95
2023-01-05T01:59:38.528Z,11.97
2023-01-05T02:00:38.473Z,11.94
2023-01-05T02:01:38.565Z,11.94
2023-01-05T02:02:38.491Z,11.94
2023-01-05T02:03:38.426Z,11.91
2023-01-05T02:04:38.472Z,11.91
2023-01-05T02:05:38.446Z,11.91
2023-01-05T02:06:38.396Z,11.90
2023-01-05T02:07:38.382Z,11.88
2023-01-05T02:08:38.379Z,11.88
2023-01-05T02:09:38.401Z,11.91
2023-01-05T02:10:38.364Z,11.91
2023-01-05T02:11:38.336Z,11.91
2023-01-05T02:12:38.327Z,11.90
2023-01-05T02:13:38.317Z,11.91
2023-01-05T02:14:38.351Z,11.90
2023-01-05T02:15:38.304Z,11.90
2023-01-05T02:16:38.283Z,11.91
2023-01-05T02:17:38.289Z,11.91
2023-01-05T02:18:38.333Z,11.94
2023-01-05T02:19:38.261Z,11.94
2023-01-05T02:20:38.258Z,11.94
2023-01-05T02:21:38.237Z,11.91
2023-01-05T02:22:38.216Z,11.90
2023-01-05T02:23:38.215Z,11.91
2023-01-05T02:24:38.229Z,11.91
2023-01-05T02:25:38.211Z,11.91
2023-01-05T02:26:38.194Z,11.94
2023-01-05T02:27:38.177Z,11.91
2023-01-05T02:28:38.149Z,11.94
2023-01-05T02:29:38.134Z,11.94
2023-01-05T02:30:38.152Z,11.94
2023-01-05T02:31:38.148Z,11.91
2023-01-05T02:32:38.094Z,11.90
2023-01-05T02:33:38.083Z,11.90
2023-01-05T02:34:38.075Z,11.87
2023-01-05T02:35:38.110Z,11.86
2023-01-05T02:36:38.057Z,11.84
2023-01-05T02:37:38.066Z,11.83
2023-01-05T02:38:38.036Z,11.81
2023-01-05T02:39:38.024Z,11.81
2023-01-05T02:40:38.003Z,11.80
2023-01-05T02:41:38.035Z,11.80
2023-01-05T02:42:38.020Z,11.81
2023-01-05T02:43:37.985Z,11.81
2023-01-05T02:44:37.986Z,11.81
2023-01-05T02:45:37.961Z,11.83
2023-01-05T02:46:38.014Z,11.81
2023-01-05T02:47:37.970Z,11.80
2023-01-05T02:48:37.928Z,11.80
2023-01-05T02:49:37.924Z,11.80
2023-01-05T02:50:37.937Z,11.80
2023-01-05T02:51:37.916Z,11.77
2023-01-05T02:52:37.924Z,11.75
2023-01-05T02:53:37.858Z,11.75
2023-01-05T02:54:37.852Z,11.75
2023-01-05T02:55:37.839Z,11.75
2023-01-05T02:56:37.830Z,11.73
2023-01-05T02:57:37.870Z,11.75
2023-01-05T02:58:37.809Z,11.73
2023-01-05T02:59:37.791Z,11.73
2023-01-05T03:00:37.780Z,11.72
2023-01-05T03:01:37.937Z,11.73
2023-01-05T03:02:47.684Z,11.72
2023-01-05T03:03:37.782Z,11.72
2023-01-05T03:04:37.734Z,11.70
2023-01-05T03:05:37.733Z,11.69
2023-01-05T03:06:37.724Z,11.70
2023-01-05T03:07:37.735Z,11.70
2023-01-05T03:08:37.734Z,11.70
2023-01-05T03:09:37.692Z,11.70
2023-01-05T03:10:37.690Z,11.69
2023-01-05T03:11:37.655Z,11.66
2023-01-05T03:12:37.669Z,11.68
2023-01-05T03:13:37.648Z,11.66
2023-01-05T03:14:37.623Z,11.66
2023-01-05T03:15:37.696Z,11.66
2023-01-05T03:16:37.615Z,11.66
2023-01-05T03:17:37.591Z,11.68
2023-01-05T03:18:37.606Z,11.66
2023-01-05T03:19:37.566Z,11.68
2023-01-05T03:20:37.550Z,11.65
2023-01-05T03:21:37.609Z,11.65
2023-01-05T03:22:37.533Z,11.66
2023-01-05T03:23:37.526Z,11.68
2023-01-05T03:24:37.508Z,11.69
2023-01-05T03:25:37.507Z,11.68
2023-01-05T03:26:37.491Z,11.66
2023-01-05T03:27:37.524Z,11.68
2023-01-05T03:28:37.468Z,11.65
2023-01-05T03:29:37.456Z,11.65
2023-01-05T03:30:37.485Z,11.65
2023-01-05T03:31:37.451Z,11.65
2023-01-05T03:32:37.422Z,11.66
2023-01-05T03:33:37.447Z,11.65
2023-01-05T03:34:37.398Z,11.66
2023-01-05T03:35:37.383Z,11.65
2023-01-05T03:36:37.380Z,11.65
2023-01-05T03:37:37.375Z,11.68
2023-01-05T03:38:37.397Z,11.66
2023-01-05T03:39:37.346Z,11.65
2023-01-05T03:40:37.331Z,11.66
2023-01-05T03:41:37.329Z,11.65
2023-01-05T03:42:37.329Z,11.65
2023-01-05T03:43:37.331Z,11.65
2023-01-05T03:44:37.289Z,11.65
2023-01-05T03:45:37.273Z,11.63
2023-01-05T03:46:37.299Z,11.62
2023-01-05T03:47:37.257Z,11.62
2023-01-05T03:48:37.254Z,11.63
2023-01-05T03:49:37.235Z,11.62
2023-01-05T03:50:37.233Z,11.62
2023-01-05T03:51:41.746Z,11.57
2023-01-05T03:52:38.196Z,11.54
2023-01-05T03:53:37.184Z,11.52
2023-01-05T03:54:38.130Z,11.50
2023-01-05T03:55:37.184Z,11.48
2023-01-05T03:56:37.152Z,11.47
2023-01-05T03:57:37.162Z,11.47
2023-01-05T03:58:37.136Z,11.48
2023-01-05T03:59:37.120Z,11.47
2023-01-05T04:00:37.132Z,11.45
2023-01-05T04:01:37.149Z,11.45
2023-01-05T04:02:37.383Z,11.45
2023-01-05T04:03:37.192Z,11.47
2023-01-05T04:04:37.058Z,11.48
2023-01-05T04:05:37.057Z,11.48
2023-01-05T04:06:37.071Z,11.50
2023-01-05T04:07:37.039Z,11.48
2023-01-05T04:08:37.100Z,11.51
2023-01-05T04:09:37.007Z,11.50
2023-01-05T04:10:36.995Z,11.51
2023-01-05T04:11:36.993Z,11.52
2023-01-05T04:12:36.985Z,11.51
2023-01-05T04:13:36.980Z,11.52
2023-01-05T04:14:36.938Z,11.52
2023-01-05T04:15:36.996Z,11.51
2023-01-05T04:16:36.992Z,11.52
2023-01-05T04:17:36.938Z,11.51
2023-01-05T04:18:36.899Z,11.54
2023-01-05T04:19:36.894Z,11.52
2023-01-05T04:20:36.907Z,11.54
2023-01-05T04:21:36.870Z,11.50
2023-01-05T04:22:36.899Z,11.51
2023-01-05T04:23:36.859Z,11.48
2023-01-05T04:24:36.832Z,11.48
2023-01-05T04:25:36.822Z,11.45
2023-01-05T04:26:36.812Z,11.43
2023-01-05T04:27:36.809Z,11.40
2023-01-05T04:28:36.812Z,11.36
2023-01-05T04:29:36.813Z,11.35
2023-01-05T04:30:36.769Z,11.30
2023-01-05T04:31:36.835Z,11.27
2023-01-05T04:32:36.773Z,11.26
2023-01-05T04:33:36.763Z,11.23
2023-01-05T04:34:36.728Z,11.19
2023-01-05T04:35:36.733Z,11.17
2023-01-05T04:36:36.705Z,11.14
2023-01-05T04:37:36.699Z,11.11
2023-01-05T04:38:36.675Z,11.05
2023-01-05T04:39:36.669Z,11.05
2023-01-05T04:40:36.693Z,11.04
2023-01-05T04:41:36.647Z,11.00
2023-01-05T04:42:36.666Z,10.99
2023-01-05T04:43:36.617Z,10.99
2023-01-05T04:44:36.621Z,10.97
2023-01-05T04:45:36.619Z,10.97
2023-01-05T04:46:36.653Z,10.97
2023-01-05T04:47:36.583Z,10.97
2023-01-05T04:48:36.571Z,10.99
2023-01-05T04:49:36.568Z,10.99
2023-01-05T04:50:36.583Z,10.99
2023-01-05T04:51:36.556Z,11.00
2023-01-05T04:52:36.518Z,11.02
2023-01-05T04:53:36.534Z,11.04
2023-01-05T04:54:36.499Z,11.04
2023-01-05T04:55:36.500Z,11.04
2023-01-05T04:56:36.493Z,11.05
2023-01-05T04:57:36.476Z,11.04
2023-01-05T04:58:36.498Z,11.05
2023-01-05T04:59:36.459Z,11.07
2023-01-05T05:00:36.451Z,11.08
2023-01-05T05:01:36.487Z,11.08
2023-01-05T05:02:36.500Z,11.11
2023-01-05T05:03:36.432Z,11.08
2023-01-05T05:04:36.432Z,11.08
2023-01-05T05:05:36.395Z,11.07
2023-01-05T05:06:36.428Z,11.08
2023-01-05T05:07:36.363Z,11.07
2023-01-05T05:08:36.381Z,11.05
2023-01-05T05:09:36.353Z,11.04
2023-01-05T05:10:36.369Z,11.02
2023-01-05T05:11:36.317Z,11.00
2023-01-05T05:12:36.304Z,11.02
2023-01-05T05:13:36.286Z,11.02
2023-01-05T05:14:36.304Z,11.05
2023-01-05T05:15:36.383Z,11.07
2023-01-05T05:16:36.265Z,11.08
2023-01-05T05:17:36.241Z,11.11
2023-01-05T05:18:36.264Z,11.11
2023-01-05T05:19:36.205Z,11.11
2023-01-05T05:20:36.244Z,11.12
2023-01-05T05:21:36.215Z,11.11
2023-01-05T05:22:36.208Z,11.11
2023-01-05T05:23:36.202Z,11.08
2023-01-05T05:24:36.174Z,11.07
2023-01-05T05:25:36.147Z,11.05
2023-01-05T05:26:36.158Z,11.05
2023-01-05T05:27:36.147Z,11.02
2023-01-05T05:28:36.128Z,11.00
2023-01-05T05:29:36.109Z,10.99
2023-01-05T05:30:36.102Z,10.97
2023-01-05T05:31:36.152Z,10.99
2023-01-05T05:32:40.857Z,10.99
2023-01-05T05:33:37.061Z,10.99
2023-01-05T05:34:36.063Z,10.99
2023-01-05T05:35:36.048Z,11.00
2023-01-05T05:36:36.040Z,11.00
2023-01-05T05:37:36.023Z,11.00
2023-01-05T05:38:36.034Z,11.02
2023-01-05T05:39:36.001Z,11.02
2023-01-05T05:40:35.988Z,11.00
2023-01-05T05:41:35.991Z,10.99
2023-01-05T05:42:35.971Z,11.00
2023-01-05T05:43:35.972Z,11.00
2023-01-05T05:44:35.949Z,10.99
2023-01-05T05:45:35.939Z,10.97
2023-01-05T05:46:36.030Z,10.97
2023-01-05T05:47:35.904Z,10.97
2023-01-05T05:48:35.907Z,10.97
2023-01-05T05:49:35.896Z,10.96
2023-01-05T05:50:35.874Z,10.96
2023-01-05T05:51:35.876Z,10.96
2023-01-05T05:52:35.884Z,10.97
2023-01-05T05:53:35.867Z,10.97
2023-01-05T05:54:35.839Z,10.97
2023-01-05T05:55:35.854Z,10.96
2023-01-05T05:56:35.821Z,10.96
2023-01-05T05:57:35.806Z,10.96
2023-01-05T05:58:35.784Z,10.94
2023-01-05T05:59:35.767Z,10.94
2023-01-05T06:00:35.771Z,10.94
2023-01-05T06:01:35.794Z,10.93
2023-01-05T06:02:35.865Z,10.92
2023-01-05T06:03:35.769Z,10.89
2023-01-05T06:04:35.716Z,10.86
2023-01-05T06:05:35.718Z,10.84
2023-01-05T06:06:36.666Z,10.81
2023-01-05T06:07:35.691Z,10.79
2023-01-05T06:08:35.733Z,10.78
2023-01-05T06:09:35.667Z,10.78
2023-01-05T06:10:35.650Z,10.78
2023-01-05T06:11:35.639Z,10.76
2023-01-05T06:12:35.632Z,10.76
2023-01-05T06:13:35.640Z,10.74
2023-01-05T06:14:35.611Z,10.72
2023-01-05T06:15:35.636Z,10.69
2023-01-05T06:16:35.645Z,10.68
2023-01-05T06:17:35.594Z,10.64
2023-01-05T06:18:35.656Z,10.61
2023-01-05T06:19:35.573Z,10.61
2023-01-05T06:20:35.548Z,10.59
2023-01-05T06:21:35.542Z,10.57
2023-01-05T06:22:35.601Z,10.54
2023-01-05T06:23:35.503Z,10.54
2023-01-05T06:24:35.495Z,10.54
2023-01-05T06:25:35.542Z,10.51
2023-01-05T06:26:35.483Z,10.51
2023-01-05T06:27:35.491Z,10.51
2023-01-05T06:28:35.479Z,10.49
2023-01-05T06:29:35.476Z,10.48
2023-01-05T06:30:35.447Z,10.48
2023-01-05T06:31:35.478Z,10.46
2023-01-05T06:32:35.475Z,10.46
2023-01-05T06:33:35.404Z,10.46
2023-01-05T06:34:35.404Z,10.42
2023-01-05T06:35:35.409Z,10.42
2023-01-05T06:36:35.384Z,10.41
2023-01-05T06:37:35.355Z,10.40
2023-01-05T06:38:35.335Z,10.41
2023-01-05T06:39:35.327Z,10.38
2023-01-05T06:40:35.347Z,10.40
2023-01-05T06:41:35.343Z,10.40
2023-01-05T06:42:35.299Z,10.40
2023-01-05T06:43:35.307Z,10.38
2023-01-05T06:44:35.304Z,10.41
2023-01-05T06:45:35.309Z,10.40
2023-01-05T06:46:35.255Z,10.40
2023-01-05T06:47:35.277Z,10.38
2023-01-05T06:48:35.236Z,10.40
2023-01-05T06:49:35.233Z,10.40
2023-01-05T06:50:35.215Z,10.40
2023-01-05T06:51:35.211Z,10.40
2023-01-05T06:52:35.201Z,10.40
2023-01-05T06:53:35.192Z,10.40
2023-01-05T06:54:35.217Z,10.40
2023-01-05T06:55:35.160Z,10.38
2023-01-05T06:56:35.149Z,10.38
2023-01-05T06:57:35.130Z,10.38
2023-01-05T06:58:35.165Z,10.40
2023-01-05T06:59:35.128Z,10.38
2023-01-05T07:00:35.122Z,10.40
2023-01-05T07:01:35.181Z,10.40
2023-01-05T07:02:35.066Z,10.40
2023-01-05T07:03:35.117Z,10.42
2023-01-05T07:04:35.077Z,10.41
2023-01-05T07:05:35.034Z,10.40
2023-01-05T07:06:35.024Z,10.41
2023-01-05T07:07:35.032Z,10.40
2023-01-05T07:08:35.003Z,10.40
2023-01-05T07:09:34.993Z,10.40
2023-01-05T07:10:34.975Z,10.40
2023-01-05T07:11:34.983Z,10.40
2023-01-05T07:12:34.991Z,10.40
2023-01-05T07:13:34.955Z,10.38
2023-01-05T07:14:34.945Z,10.38
2023-01-05T07:15:34.962Z,10.38
2023-01-05T07:16:34.944Z,10.38
2023-01-05T07:17:34.917Z,10.40
2023-01-05T07:18:34.890Z,10.40
2023-01-05T07:19:34.933Z,10.41
2023-01-05T07:20:34.871Z,10.41
2023-01-05T07:21:34.858Z,10.42
2023-01-05T07:22:34.857Z,10.44
2023-01-05T07:23:34.828Z,10.46
2023-01-05T07:24:34.850Z,10.48
2023-01-05T07:25:34.848Z,10.48
2023-01-05T07:26:34.831Z,10.49
2023-01-05T07:27:34.821Z,10.51
2023-01-05T07:28:34.781Z,10.51
2023-01-05T07:29:34.793Z,10.53
2023-01-05T07:30:34.781Z,10.54
2023-01-05T07:31:34.797Z,10.56
2023-01-05T07:32:34.749Z,10.54
2023-01-05T07:33:39.222Z,10.56
2023-01-05T07:34:35.931Z,10.57
2023-01-05T07:35:34.978Z,10.56
2023-01-05T07:36:35.641Z,10.59
2023-01-05T07:37:34.722Z,10.59
2023-01-05T07:38:34.724Z,10.60
2023-01-05T07:39:36.114Z,10.61
2023-01-05T07:40:34.659Z,10.60
2023-01-05T07:41:34.633Z,10.60
2023-01-05T07:42:34.620Z,10.61
2023-01-05T07:43:34.942Z,10.63
2023-01-05T07:44:34.964Z,10.63
2023-01-05T07:45:34.620Z,10.63
2023-01-05T07:46:34.939Z,10.64
2023-01-05T07:47:34.560Z,10.67
2023-01-05T07:48:34.604Z,10.63
2023-01-05T07:49:34.727Z,10.63
2023-01-05T07:50:34.566Z,10.61
2023-01-05T07:51:34.693Z,10.61
2023-01-05T07:52:34.527Z,10.59
2023-01-05T07:53:41.380Z,10.59
2023-01-05T07:54:35.494Z,10.57
2023-01-05T07:55:34.462Z,10.57
2023-01-05T07:56:34.492Z,10.56
2023-01-05T07:57:34.506Z,10.57
2023-01-05T07:58:34.460Z,10.56
2023-01-05T07:59:34.466Z,10.57
2023-01-05T08:00:34.505Z,10.59
2023-01-05T08:01:34.550Z,10.57
2023-01-05T08:02:36.265Z,10.59
2023-01-05T08:03:34.398Z,10.59
2023-01-05T08:04:34.465Z,10.59
2023-01-05T08:05:34.397Z,10.61
2023-01-05T08:06:34.358Z,10.60
2023-01-05T08:07:35.826Z,10.64
2023-01-05T08:08:34.365Z,10.64
2023-01-05T08:09:34.497Z,10.64
2023-01-05T08:10:35.773Z,10.67
2023-01-05T08:11:34.294Z,10.67
2023-01-05T08:12:34.291Z,10.67
2023-01-05T08:13:34.284Z,10.69
2023-01-05T08:14:34.279Z,10.67
2023-01-05T08:15:34.318Z,10.69
2023-01-05T08:16:34.367Z,10.68
2023-01-05T08:17:34.220Z,10.71
2023-01-05T08:18:34.249Z,10.71
2023-01-05T08:19:34.243Z,10.72
2023-01-05T08:20:34.220Z,10.72
2023-01-05T08:21:34.210Z,10.75
2023-01-05T08:22:34.194Z,10.74
2023-01-05T08:23:34.173Z,10.75
2023-01-05T08:24:34.199Z,10.74
2023-01-05T08:25:34.153Z,10.75
2023-01-05T08:26:34.183Z,10.76
2023-01-05T08:27:34.163Z,10.76
2023-01-05T08:28:35.669Z,10.75
2023-01-05T08:29:34.100Z,10.75
2023-01-05T08:30:34.078Z,10.75
2023-01-05T08:31:34.131Z,10.75
2023-01-05T08:32:34.065Z,10.76
2023-01-05T08:33:34.075Z,10.76
2023-01-05T08:34:35.102Z,10.78
2023-01-05T08:35:34.986Z,10.78
2023-01-05T08:36:34.020Z,10.79
2023-01-05T08:37:34.049Z,10.79
2023-01-05T08:38:33.993Z,10.79
2023-01-05T08:39:33.993Z,10.79
2023-01-05T08:40:33.982Z,10.81
2023-01-05T08:41:33.967Z,10.81
2023-01-05T08:42:33.975Z,10.81
2023-01-05T08:43:33.939Z,10.81
2023-01-05T08:44:33.954Z,10.82
2023-01-05T08:45:34.018Z,10.82
2023-01-05T08:46:33.951Z,10.84
2023-01-05T08:47:33.918Z,10.82
2023-01-05T08:48:34.842Z,10.81
2023-01-05T08:49:33.873Z,10.82
2023-01-05T08:50:33.876Z,10.82
2023-01-05T08:51:33.854Z,10.84
2023-01-05T08:52:33.868Z,10.82
2023-01-05T08:53:33.824Z,10.81
2023-01-05T08:54:33.838Z,10.82
2023-01-05T08:55:33.821Z,10.84
2023-01-05T08:56:38.653Z,10.82
2023-01-05T08:57:34.776Z,10.82
2023-01-05T08:58:33.833Z,10.86
2023-01-05T08:59:33.786Z,10.84
2023-01-05T09:00:33.749Z,10.84
2023-01-05T09:01:33.813Z,10.84
2023-01-05T09:02:33.948Z,10.86
2023-01-05T09:03:33.786Z,10.84
2023-01-05T09:04:33.701Z,10.87
2023-01-05T09:05:33.700Z,10.87
2023-01-05T09:06:33.679Z,10.87
2023-01-05T09:07:33.702Z,10.89
2023-01-05T09:08:33.657Z,10.89
2023-01-05T09:09:33.736Z,10.89
2023-01-05T09:10:35.086Z,10.90
2023-01-05T09:11:33.680Z,10.90
2023-01-05T09:12:33.613Z,10.90
2023-01-05T09:13:33.741Z,10.92
2023-01-05T09:14:33.613Z,10.92
2023-01-05T09:15:33.630Z,10.93
2023-01-05T09:17:34.603Z,10.96
2023-01-05T09:18:33.546Z,10.96
2023-01-05T09:19:33.543Z,10.96
2023-01-05T09:20:39.617Z,10.96
2023-01-05T09:21:34.552Z,10.97
2023-01-05T09:22:33.497Z,10.99
2023-01-05T09:23:33.491Z,10.99
2023-01-05T09:24:33.477Z,11.00
2023-01-05T09:25:33.475Z,10.99
2023-01-05T09:26:33.445Z,11.00
2023-01-05T09:27:33.495Z,11.00
2023-01-05T09:28:33.437Z,11.02
2023-01-05T09:29:33.431Z,11.04
2023-01-05T09:30:41.894Z,11.05
2023-01-05T09:31:34.484Z,11.07
2023-01-05T09:32:33.403Z,11.05
2023-01-05T09:33:33.421Z,11.08
2023-01-05T09:34:33.366Z,11.08
2023-01-05T09:35:33.350Z,11.10
2023-01-05T09:36:33.338Z,11.10
2023-01-05T09:37:33.346Z,11.11
2023-01-05T09:38:33.334Z,11.11
2023-01-05T09:39:33.348Z,11.11
2023-01-05T09:40:33.319Z,11.14
2023-01-05T09:41:33.299Z,11.15
2023-01-05T09:42:33.277Z,11.15
2023-01-05T09:43:33.273Z,11.15
2023-01-05T09:44:33.265Z,11.14
2023-01-05T09:45:34.228Z,11.15
2023-01-05T09:46:33.259Z,11.18
2023-01-05T09:47:33.264Z,11.17
2023-01-05T09:48:33.212Z,11.18
2023-01-05T09:49:33.224Z,11.18
2023-01-05T09:50:33.185Z,11.22
2023-01-05T09:51:33.236Z,11.22
2023-01-05T09:52:38.030Z,11.22
2023-01-05T09:53:34.176Z,11.23
2023-01-05T09:54:33.139Z,11.25
2023-01-05T09:55:33.175Z,11.26
2023-01-05T09:57:34.104Z,11.25
2023-01-05T09:58:33.115Z,11.25
2023-01-05T09:59:33.085Z,11.27
2023-01-05T10:00:33.081Z,11.27
2023-01-05T10:01:33.111Z,11.29
2023-01-05T10:02:33.059Z,11.29
2023-01-05T10:04:34.155Z,11.32
2023-01-05T10:05:33.077Z,11.33
2023-01-05T10:06:33.004Z,11.35
2023-01-05T10:07:33.026Z,11.35
2023-01-05T10:08:33.035Z,11.40
2023-01-05T10:09:32.966Z,11.37
2023-01-05T10:10:32.954Z,11.40
2023-01-05T10:11:32.951Z,11.37
2023-01-05T10:12:32.972Z,11.37
2023-01-05T10:13:32.935Z,11.40
2023-01-05T10:14:32.955Z,11.40
2023-01-05T10:15:32.938Z,11.40
2023-01-05T10:16:32.932Z,11.40
2023-01-05T10:17:42.229Z,11.41
2023-01-05T10:18:33.881Z,11.40
2023-01-05T10:19:32.863Z,11.41
2023-01-05T10:20:32.845Z,11.41
2023-01-05T10:21:32.839Z,11.41
2023-01-05T10:22:38.463Z,11.37
2023-01-05T10:23:33.821Z,11.37
2023-01-05T10:24:32.795Z,11.37
2023-01-05T10:25:32.793Z,11.40
2023-01-05T10:26:58.195Z,11.37
2023-01-05T10:27:33.811Z,11.37
2023-01-05T10:28:32.966Z,11.37
2023-01-05T10:29:32.751Z,11.36
2023-01-05T10:30:32.739Z,11.36
2023-01-05T10:31:32.750Z,11.36
2023-01-05T10:32:39.193Z,11.37
2023-01-05T10:33:40.313Z,11.37
2023-01-05T10:34:34.663Z,11.37
2023-01-05T10:37:06.645Z,11.41
2023-01-05T10:37:33.665Z,11.43
2023-01-05T10:38:32.712Z,11.44
2023-01-05T10:39:32.663Z,11.44
2023-01-05T10:40:32.859Z,11.45
2023-01-05T10:41:32.646Z,11.47
2023-01-05T10:42:32.599Z,11.48
2023-01-05T10:43:32.596Z,11.51
2023-01-05T10:44:32.580Z,11.52
2023-01-05T10:45:32.598Z,11.55
2023-01-05T10:46:40.859Z,11.55
2023-01-05T10:47:33.616Z,11.57
2023-01-05T10:48:33.481Z,11.55
2023-01-05T10:49:32.607Z,11.59
2023-01-05T10:50:32.527Z,11.60
2023-01-05T10:51:33.049Z,11.60
2023-01-05T10:52:32.501Z,11.62
2023-01-05T10:53:34.080Z,11.62
2023-01-05T10:54:32.470Z,11.65
2023-01-05T10:55:32.467Z,11.65
2023-01-05T10:56:32.457Z,11.66
2023-01-05T10:57:35.813Z,11.68
2023-01-05T10:58:32.435Z,11.70
2023-01-05T10:59:32.428Z,11.72
2023-01-05T11:00:32.407Z,11.72
2023-01-05T11:01:32.467Z,11.73
2023-01-05T11:02:32.552Z,11.73
2023-01-05T11:04:05.793Z,11.72
2023-01-05T11:04:35.440Z,11.72
2023-01-05T11:05:32.410Z,11.73
2023-01-05T11:06:32.345Z,11.73
2023-01-05T11:07:33.782Z,11.73
2023-01-05T11:08:32.302Z,11.77
2023-01-05T11:09:32.324Z,11.75
2023-01-05T11:10:32.292Z,11.73
2023-01-05T11:11:32.297Z,11.73
2023-01-05T11:12:33.716Z,11.72
2023-01-05T11:13:32.259Z,11.73
2023-01-05T11:14:32.268Z,11.73
2023-01-05T11:15:32.344Z,11.72
2023-01-05T11:16:32.218Z,11.75
2023-01-05T11:17:32.236Z,11.75
2023-01-05T11:18:32.365Z,11.73
2023-01-05T11:19:32.187Z,11.73
2023-01-05T11:20:32.168Z,11.75
2023-01-05T11:21:32.165Z,11.75
2023-01-05T11:22:32.169Z,11.77
2023-01-05T11:23:32.136Z,11.77
2023-01-05T11:24:32.174Z,11.78
2023-01-05T11:25:32.130Z,11.78
2023-01-05T11:26:32.123Z,11.78
2023-01-05T11:27:32.102Z,11.78
2023-01-05T11:28:32.084Z,11.80
2023-01-05T11:29:32.099Z,11.80
2023-01-05T11:30:32.091Z,11.80
2023-01-05T11:31:32.094Z,11.81
2023-01-05T11:32:32.052Z,11.80
2023-01-05T11:33:32.049Z,11.83
2023-01-05T11:34:32.354Z,11.84
2023-01-05T11:35:32.011Z,11.83
2023-01-05T11:36:32.019Z,11.86
2023-01-05T11:37:32.572Z,11.84
2023-01-05T11:38:32.021Z,11.81
2023-01-05T11:39:31.978Z,11.83
2023-01-05T11:40:31.994Z,11.81
2023-01-05T11:41:32.633Z,11.83
2023-01-05T11:42:31.928Z,11.83
2023-01-05T11:43:32.911Z,11.84
2023-01-05T11:44:31.938Z,11.84
2023-01-05T11:45:32.312Z,11.86
2023-01-05T11:46:32.616Z,11.87
2023-01-05T11:47:33.465Z,11.86
2023-01-05T11:48:31.884Z,11.88
2023-01-05T11:49:31.875Z,11.90
2023-01-05T11:50:31.864Z,11.88
2023-01-05T11:51:31.841Z,11.90
2023-01-05T11:52:31.830Z,11.95
2023-01-05T11:53:32.781Z,11.97
2023-01-05T11:54:31.814Z,11.95
2023-01-05T11:55:31.830Z,11.94
2023-01-05T11:56:31.768Z,11.94
2023-01-05T11:57:32.117Z,11.94
2023-01-05T11:58:31.754Z,11.94
2023-01-05T11:59:31.767Z,11.95
2023-01-05T12:00:33.271Z,11.95
2023-01-05T12:01:31.736Z,11.95
2023-01-05T12:02:31.836Z,11.99
2023-01-05T12:03:33.206Z,11.99
2023-01-05T12:04:31.717Z,11.97
2023-01-05T12:05:31.670Z,11.97
2023-01-05T12:06:31.846Z,11.97
2023-01-05T12:07:31.660Z,11.97
2023-01-05T12:08:31.766Z,11.97
2023-01-05T12:09:35.042Z,11.95
2023-01-05T12:10:31.608Z,11.95
2023-01-05T12:11:31.867Z,11.94
2023-01-05T12:12:31.627Z,11.91
2023-01-05T12:13:31.609Z,11.90
2023-01-05T12:14:31.672Z,11.88
2023-01-05T12:15:31.640Z,11.88
2023-01-05T12:16:31.589Z,11.87
2023-01-05T12:17:31.780Z,11.90
2023-01-05T12:18:31.749Z,11.88
2023-01-05T12:19:32.480Z,11.90
2023-01-05T12:20:31.543Z,11.88
2023-01-05T12:21:31.517Z,11.88
2023-01-05T12:22:31.610Z,11.90
2023-01-05T12:23:31.486Z,11.91
2023-01-05T12:24:31.953Z,11.91
2023-01-05T12:25:31.619Z,11.94
2023-01-05T12:26:31.684Z,11.95
2023-01-05T12:27:31.443Z,11.97
2023-01-05T12:28:41.096Z,11.97
2023-01-05T12:31:06.477Z,11.94
2023-01-05T12:34:32.381Z,11.86
2023-01-05T12:35:31.360Z,11.84
2023-01-05T12:36:31.567Z,11.83
2023-01-05T12:37:31.321Z,11.83
2023-01-05T12:38:31.325Z,11.81
2023-01-05T12:39:32.121Z,11.81
2023-01-05T12:40:31.284Z,11.81
2023-01-05T12:41:31.329Z,11.81
2023-01-05T12:42:31.275Z,11.83
2023-01-05T12:43:31.257Z,11.84
2023-01-05T12:44:31.237Z,11.87
2023-01-05T12:45:32.223Z,11.90
2023-01-05T12:46:31.264Z,11.91
2023-01-05T12:47:31.238Z,11.97
2023-01-05T12:48:31.213Z,11.99
2023-01-05T12:49:31.223Z,12.03
2023-01-05T12:50:31.213Z,12.04
2023-01-05T12:51:31.230Z,12.07
2023-01-05T12:52:31.198Z,12.07
2023-01-05T12:53:31.164Z,12.12
2023-01-05T12:54:31.305Z,12.12
2023-01-05T12:55:31.124Z,12.17
2023-01-05T12:56:31.243Z,12.18
2023-01-05T12:57:31.146Z,12.22
2023-01-05T12:58:31.113Z,12.28
2023-01-05T12:59:31.478Z,12.32
2023-01-05T13:00:31.101Z,12.42